Time;durP1;ratioP1;P1;durP2;ratioP2;P2;SDS_P1;SDS_P2;PMS_P1;PMS_P2;Temp;Humidity;BMP_temperature;BMP_pressure;BME280_temperature;BME280_humidity;BME280_pressure;Samples;Min_cycle;Max_cycle;Signal;HPM_P1;HPM_P2
2023/05/27 00:00:55;;;;;;;2.80;2.60;;;26.20;60.80;;;;;;5071482;28;20465;-67
2023/05/27 00:03:23;;;;;;;2.07;1.97;;;26.20;60.90;;;;;;5071805;28;20949;-66
2023/05/27 00:05:52;;;;;;;2.17;2.07;;;26.10;60.90;;;;;;5072509;28;20818;-66
2023/05/27 00:08:20;;;;;;;2.37;2.17;;;26.10;60.90;;;;;;5050982;28;20469;-67
2023/05/27 00:10:48;;;;;;;2.27;2.17;;;26.10;60.90;;;;;;5059271;28;20970;-67
2023/05/27 00:13:17;;;;;;;2.10;2.00;;;26.10;60.90;;;;;;5053193;28;20461;-67
2023/05/27 00:15:45;;;;;;;2.10;2.00;;;26.20;60.90;;;;;;5070889;28;20465;-67
2023/05/27 00:18:15;;;;;;;2.63;2.43;;;26.10;60.90;;;;;;5051302;28;20803;-67
2023/05/27 00:20:43;;;;;;;2.07;1.90;;;26.10;60.90;;;;;;5071714;28;20464;-66
2023/05/27 00:23:11;;;;;;;2.20;2.10;;;26.10;60.90;;;;;;5071184;28;20461;-66
2023/05/27 00:25:40;;;;;;;2.30;2.20;;;26.10;60.90;;;;;;5068527;28;20948;-67
2023/05/27 00:28:08;;;;;;;1.90;1.80;;;26.10;60.90;;;;;;5071859;28;20544;-66
2023/05/27 00:30:37;;;;;;;2.53;2.33;;;26.10;61.00;;;;;;5056306;28;20957;-66
2023/05/27 00:33:05;;;;;;;2.63;2.53;;;26.10;61.00;;;;;;5072121;28;20946;-67
2023/05/27 00:35:35;;;;;;;2.47;2.30;;;26.10;61.00;;;;;;5061648;28;20435;-66
2023/05/27 00:38:05;;;;;;;2.93;2.73;;;26.10;61.00;;;;;;5054842;28;20951;-66
2023/05/27 00:40:37;;;;;;;2.67;2.50;;;26.10;61.00;;;;;;5074403;28;20963;-66
2023/05/27 00:43:06;;;;;;;2.57;2.37;;;26.10;61.00;;;;;;5071980;28;20438;-67
2023/05/27 00:45:34;;;;;;;2.10;2.00;;;26.10;61.00;;;;;;5052718;28;20502;-66
2023/05/27 00:48:04;;;;;;;1.90;1.80;;;26.10;61.10;;;;;;5053565;28;20472;-66
2023/05/27 00:50:32;;;;;;;2.40;2.23;;;26.10;61.10;;;;;;5070888;28;21018;-66
2023/05/27 00:53:02;;;;;;;2.03;1.93;;;26.00;61.10;;;;;;5070860;28;20503;-67
2023/05/27 00:55:30;;;;;;;2.37;2.27;;;26.00;61.10;;;;;;5071077;28;20484;-67
2023/05/27 00:58:00;;;;;;;2.23;2.13;;;26.00;61.10;;;;;;5052654;28;20456;-66
2023/05/27 01:00:28;;;;;;;2.23;2.13;;;26.00;61.10;;;;;;5048889;28;20461;-66
2023/05/27 01:02:57;;;;;;;2.10;2.00;;;26.00;61.10;;;;;;5054842;28;20522;-66
2023/05/27 01:05:27;;;;;;;2.20;2.10;;;26.00;61.10;;;;;;5052871;28;20964;-67
2023/05/27 01:08:19;;;;;;;2.20;2.10;;;26.00;61.20;;;;;;5071441;28;20425;-66
2023/05/27 01:10:51;;;;;;;1.97;1.87;;;26.00;61.20;;;;;;5039312;28;20532;-67
2023/05/27 01:13:31;;;;;;;1.97;1.87;;;26.00;61.20;;;;;;5070445;28;20477;-68
2023/05/27 01:16:03;;;;;;;1.90;1.80;;;26.00;61.20;;;;;;5052408;28;20469;-67
2023/05/27 01:18:33;;;;;;;2.30;2.20;;;26.00;61.20;;;;;;5045262;28;20472;-66
2023/05/27 01:21:06;;;;;;;2.07;1.97;;;26.00;61.20;;;;;;5063011;28;20484;-66
2023/05/27 01:23:38;;;;;;;2.73;2.57;;;26.00;61.20;;;;;;5070690;28;20469;-66
2023/05/27 01:26:07;;;;;;;2.13;2.03;;;25.90;61.20;;;;;;5053555;28;20442;-67
2023/05/27 01:28:35;;;;;;;2.20;2.10;;;26.00;61.30;;;;;;5052026;28;20466;-66
2023/05/27 01:31:11;;;;;;;2.70;2.50;;;26.00;61.30;;;;;;5052324;28;20803;-66
2023/05/27 01:33:43;;;;;;;1.90;1.80;;;25.90;61.30;;;;;;5071312;28;20449;-67
2023/05/27 01:36:15;;;;;;;2.20;2.10;;;25.90;61.30;;;;;;5070608;28;20453;-66
2023/05/27 01:38:48;;;;;;;1.93;1.80;;;25.90;61.30;;;;;;5052436;28;20926;-66
2023/05/27 01:41:19;;;;;;;2.10;2.00;;;25.90;61.30;;;;;;5053493;28;20477;-65
2023/05/27 01:43:48;;;;;;;1.80;1.70;;;25.90;61.30;;;;;;5069479;28;20517;-65
2023/05/27 01:46:16;;;;;;;1.93;1.83;;;25.90;61.30;;;;;;5070557;28;20430;-67
2023/05/27 01:48:44;;;;;;;2.20;2.10;;;25.90;61.40;;;;;;5055043;28;20456;-65
2023/05/27 01:51:13;;;;;;;2.27;2.17;;;25.90;61.40;;;;;;5070354;28;20452;-66
2023/05/27 01:53:41;;;;;;;2.03;1.93;;;25.90;61.40;;;;;;5070460;28;20432;-64
2023/05/27 01:56:11;;;;;;;1.67;1.57;;;25.90;61.40;;;;;;5052832;28;20484;-64
2023/05/27 01:58:39;;;;;;;1.90;1.80;;;25.90;61.40;;;;;;5055279;28;20459;-65
2023/05/27 02:01:07;;;;;;;2.30;2.10;;;25.90;61.40;;;;;;5069408;28;20476;-64
2023/05/27 02:03:36;;;;;;;2.17;2.07;;;25.90;61.40;;;;;;5069837;28;20457;-64
2023/05/27 02:06:05;;;;;;;1.90;1.80;;;25.90;61.40;;;;;;5072716;28;20445;-63
2023/05/27 02:08:33;;;;;;;2.00;1.90;;;25.80;61.50;;;;;;5055503;28;20468;-63
2023/05/27 02:11:02;;;;;;;2.43;2.30;;;25.90;61.50;;;;;;5074473;28;20699;-64
2023/05/27 02:13:32;;;;;;;1.87;1.77;;;25.80;61.50;;;;;;5056193;28;20460;-64
2023/05/27 02:16:00;;;;;;;1.80;1.70;;;25.80;61.50;;;;;;5073260;28;20428;-64
2023/05/27 02:18:30;;;;;;;2.00;1.90;;;25.80;61.50;;;;;;5071996;28;20467;-64
2023/05/27 02:21:05;;;;;;;2.20;2.10;;;25.80;61.50;;;;;;5055572;28;20469;-64
2023/05/27 02:23:33;;;;;;;2.60;2.27;;;25.80;61.50;;;;;;5073434;28;20444;-65
2023/05/27 02:26:01;;;;;;;2.00;1.90;;;25.80;61.50;;;;;;5071574;28;20453;-64
2023/05/27 02:28:29;;;;;;;2.63;2.43;;;25.80;61.60;;;;;;5043471;28;20750;-65
2023/05/27 02:31:00;;;;;;;2.33;2.23;;;25.80;61.60;;;;;;5054939;28;20460;-64
2023/05/27 02:33:29;;;;;;;1.90;1.80;;;25.80;61.60;;;;;;5056263;28;20888;-64
2023/05/27 02:35:57;;;;;;;2.37;2.17;;;25.80;61.60;;;;;;5055308;28;20456;-63
2023/05/27 02:38:25;;;;;;;2.07;1.97;;;25.80;61.60;;;;;;5056184;28;21312;-64
2023/05/27 02:40:54;;;;;;;2.70;2.50;;;25.80;61.60;;;;;;5055406;28;20461;-65
2023/05/27 02:43:22;;;;;;;1.80;1.70;;;25.80;61.60;;;;;;5055516;28;20453;-64
2023/05/27 02:45:50;;;;;;;2.10;2.00;;;25.80;61.60;;;;;;5055238;28;20924;-64
2023/05/27 02:48:20;;;;;;;1.70;1.60;;;25.80;61.60;;;;;;5073791;28;20527;-64
2023/05/27 02:50:49;;;;;;;2.70;1.93;;;25.70;61.60;;;;;;5074069;28;20451;-63
2023/05/27 02:53:19;;;;;;;1.90;1.80;;;25.70;61.60;;;;;;5056317;28;20489;-63
2023/05/27 02:55:48;;;;;;;1.87;1.77;;;25.70;61.70;;;;;;5073009;28;20455;-64
2023/05/27 02:58:17;;;;;;;1.83;1.73;;;25.70;61.70;;;;;;5073891;28;20464;-64
2023/05/27 03:00:45;;;;;;;1.97;1.87;;;25.70;61.70;;;;;;5067082;28;20460;-63
2023/05/27 03:03:13;;;;;;;2.40;2.23;;;25.70;61.70;;;;;;5055354;28;20478;-63
2023/05/27 03:05:43;;;;;;;2.20;2.10;;;25.70;61.70;;;;;;5063215;28;20472;-65
2023/05/27 03:08:11;;;;;;;2.10;2.00;;;25.70;61.70;;;;;;5073271;28;20441;-64
2023/05/27 03:10:39;;;;;;;2.17;2.07;;;25.70;61.70;;;;;;5072778;28;20463;-65
2023/05/27 03:13:08;;;;;;;2.40;2.30;;;25.70;61.70;;;;;;5066659;28;20450;-63
2023/05/27 03:15:38;;;;;;;2.10;2.00;;;25.70;61.70;;;;;;5047165;28;20453;-63
2023/05/27 03:18:06;;;;;;;2.50;2.30;;;25.70;61.70;;;;;;5046109;28;20449;-64
2023/05/27 03:20:34;;;;;;;2.00;1.90;;;25.70;61.70;;;;;;5055526;28;20456;-64
2023/05/27 03:23:04;;;;;;;2.20;2.10;;;25.70;61.80;;;;;;5075033;28;20984;-64
2023/05/27 03:25:33;;;;;;;2.23;2.13;;;25.70;61.80;;;;;;5072706;28;20445;-64
2023/05/27 03:28:04;;;;;;;1.80;1.70;;;25.70;61.80;;;;;;5054861;28;20917;-64
2023/05/27 03:30:33;;;;;;;2.50;2.30;;;25.70;61.80;;;;;;5071655;28;20950;-64
2023/05/27 03:33:02;;;;;;;1.90;1.70;;;25.70;61.80;;;;;;5072087;28;20547;-64
2023/05/27 03:35:36;;;;;;;2.07;1.97;;;25.70;61.80;;;;;;5053569;28;20445;-63
2023/05/27 03:38:05;;;;;;;2.00;1.90;;;25.70;61.80;;;;;;5053345;28;20799;-64
2023/05/27 03:40:34;;;;;;;2.20;2.10;;;25.70;61.80;;;;;;5054693;28;20459;-64
2023/05/27 03:43:06;;;;;;;1.90;1.80;;;25.60;61.80;;;;;;5054801;28;20483;-64
2023/05/27 03:45:35;;;;;;;1.90;1.77;;;25.60;61.80;;;;;;5053478;28;20535;-63
2023/05/27 03:48:03;;;;;;;1.67;1.57;;;25.60;61.80;;;;;;5054537;28;20464;-64
2023/05/27 03:50:32;;;;;;;1.93;1.83;;;25.60;61.90;;;;;;5072300;28;20455;-64
2023/05/27 03:53:00;;;;;;;1.90;1.80;;;25.60;61.90;;;;;;5054554;28;20456;-63
2023/05/27 03:55:30;;;;;;;1.77;1.67;;;25.60;61.90;;;;;;5071871;28;20445;-63
2023/05/27 03:57:58;;;;;;;1.70;1.60;;;25.60;61.90;;;;;;5053906;28;20472;-64
2023/05/27 04:00:28;;;;;;;1.87;1.77;;;25.60;61.90;;;;;;5053385;28;20449;-63
2023/05/27 04:02:57;;;;;;;1.93;1.83;;;25.60;61.90;;;;;;5071803;28;20566;-63
2023/05/27 04:05:27;;;;;;;2.10;2.00;;;25.60;61.90;;;;;;5054274;28;20468;-64
2023/05/27 04:07:56;;;;;;;2.10;2.00;;;25.60;61.90;;;;;;5066386;28;20451;-63
2023/05/27 04:10:24;;;;;;;1.90;1.80;;;25.60;61.90;;;;;;5071657;28;20460;-65
2023/05/27 04:12:53;;;;;;;2.00;1.90;;;25.60;61.90;;;;;;5072233;28;20445;-64
2023/05/27 04:15:22;;;;;;;1.90;1.80;;;25.60;61.90;;;;;;5071324;28;20451;-64
2023/05/27 04:17:52;;;;;;;2.23;2.13;;;25.60;61.90;;;;;;5053972;28;20857;-64
2023/05/27 04:20:20;;;;;;;2.20;2.10;;;25.60;61.90;;;;;;5066093;28;20877;-64
2023/05/27 04:22:53;;;;;;;1.77;1.67;;;25.60;61.90;;;;;;5036234;28;20476;-65
2023/05/27 04:25:23;;;;;;;1.90;1.80;;;25.60;61.90;;;;;;5043546;28;20467;-64
2023/05/27 04:28:13;;;;;;;2.10;2.00;;;25.60;61.90;;;;;;5066708;28;20903;-64
2023/05/27 04:30:47;;;;;;;1.53;1.43;;;25.60;61.90;;;;;;5052788;28;20456;-64
2023/05/27 04:33:23;;;;;;;2.00;1.90;;;25.60;61.90;;;;;;5053220;28;20481;-63
2023/05/27 04:35:53;;;;;;;1.80;1.70;;;25.60;61.90;;;;;;5053600;28;20463;-64
2023/05/27 04:38:22;;;;;;;2.00;1.90;;;25.60;61.90;;;;;;5053527;28;20471;-63
2023/05/27 04:40:58;;;;;;;1.80;1.70;;;25.60;61.90;;;;;;5054047;28;20465;-63
2023/05/27 04:43:50;;;;;;;1.53;1.43;;;25.60;61.90;;;;;;5066970;28;20467;-64
2023/05/27 04:46:21;;;;;;;2.03;1.93;;;25.60;61.90;;;;;;5054636;28;20459;-64
2023/05/27 04:48:50;;;;;;;2.27;2.10;;;25.60;61.90;;;;;;5052842;28;20459;-65
2023/05/27 04:51:19;;;;;;;1.83;1.73;;;25.60;61.90;;;;;;5053855;28;20458;-64
2023/05/27 04:53:49;;;;;;;2.17;2.07;;;25.60;61.90;;;;;;5071050;28;20499;-63
2023/05/27 04:56:20;;;;;;;1.97;1.87;;;25.60;61.90;;;;;;5053180;28;20665;-64
2023/05/27 04:58:50;;;;;;;1.80;1.70;;;25.60;61.90;;;;;;5052972;28;20470;-65
2023/05/27 05:01:25;;;;;;;1.90;1.80;;;25.60;61.90;;;;;;5065198;28;20482;-64
2023/05/27 05:04:12;;;;;;;1.50;1.40;;;25.60;61.90;;;;;;5046773;28;20484;-63
2023/05/27 05:06:46;;;;;;;2.00;1.90;;;25.60;61.90;;;;;;5046828;28;20600;-63
2023/05/27 05:09:15;;;;;;;2.00;1.90;;;25.60;61.90;;;;;;5053193;28;20455;-63
2023/05/27 05:11:45;;;;;;;1.77;1.67;;;25.60;61.90;;;;;;5052833;28;20447;-63
2023/05/27 05:14:16;;;;;;;2.10;2.00;;;25.60;61.90;;;;;;5051777;28;20459;-63
2023/05/27 05:16:45;;;;;;;1.77;1.67;;;25.60;61.90;;;;;;5053403;28;21093;-64
2023/05/27 05:19:14;;;;;;;1.97;1.87;;;25.60;61.80;;;;;;5050634;28;20466;-64
2023/05/27 05:21:43;;;;;;;1.90;1.80;;;25.60;61.80;;;;;;5071719;28;20445;-64
2023/05/27 05:24:13;;;;;;;1.73;1.63;;;25.60;61.80;;;;;;5052861;28;20476;-64
2023/05/27 05:26:43;;;;;;;1.93;1.83;;;25.60;61.80;;;;;;5052719;28;20995;-64
2023/05/27 05:29:12;;;;;;;1.77;1.67;;;25.60;61.80;;;;;;5050040;28;20495;-65
2023/05/27 05:31:44;;;;;;;1.90;1.80;;;25.60;61.80;;;;;;5065990;28;20504;-63
2023/05/27 05:34:15;;;;;;;2.10;2.00;;;25.60;61.80;;;;;;5052691;28;20477;-64
2023/05/27 05:36:43;;;;;;;1.77;1.67;;;25.60;61.80;;;;;;5052868;28;20537;-65
2023/05/27 05:39:11;;;;;;;1.70;1.60;;;25.60;61.80;;;;;;5069688;28;20447;-64
2023/05/27 05:41:47;;;;;;;1.43;1.33;;;25.60;61.80;;;;;;5055784;28;20533;-63
2023/05/27 05:44:18;;;;;;;1.90;1.80;;;25.60;61.80;;;;;;5056256;28;21002;-63
2023/05/27 05:46:48;;;;;;;2.30;2.10;;;25.60;61.80;;;;;;5056526;28;20470;-64
2023/05/27 05:49:19;;;;;;;1.60;1.50;;;25.60;61.80;;;;;;5056640;28;20496;-63
2023/05/27 05:51:48;;;;;;;1.80;1.70;;;25.60;61.80;;;;;;5057211;28;20483;-64
2023/05/27 05:54:17;;;;;;;1.50;1.40;;;25.70;61.80;;;;;;5056605;28;20464;-64
2023/05/27 05:56:49;;;;;;;1.57;1.50;;;25.70;61.80;;;;;;5056782;28;20502;-64
2023/05/27 05:59:18;;;;;;;1.80;1.70;;;25.70;61.80;;;;;;5056382;28;20462;-64
2023/05/27 06:01:47;;;;;;;1.90;1.80;;;25.70;61.80;;;;;;5074418;28;20428;-63
2023/05/27 06:04:17;;;;;;;2.40;2.20;;;25.70;61.80;;;;;;5056364;28;20993;-64
2023/05/27 06:06:47;;;;;;;2.00;1.90;;;25.70;61.80;;;;;;5057019;28;20463;-64
2023/05/27 06:09:28;;;;;;;2.00;1.90;;;25.70;61.80;;;;;;5055351;28;20470;-65
2023/05/27 06:12:00;;;;;;;2.13;2.03;;;25.70;61.80;;;;;;5053023;28;20455;-64
2023/05/27 06:14:36;;;;;;;1.77;1.67;;;25.70;61.80;;;;;;5055038;28;20959;-64
2023/05/27 06:17:06;;;;;;;2.20;2.00;;;25.70;61.80;;;;;;5036346;28;20474;-64
2023/05/27 06:19:34;;;;;;;1.80;1.70;;;25.70;61.80;;;;;;5052408;28;20464;-64
2023/05/27 06:22:04;;;;;;;1.73;1.63;;;25.70;61.80;;;;;;5056639;28;20527;-64
2023/05/27 06:25:06;;;;;;;1.70;1.60;;;25.70;61.80;;;;;;5025331;28;20476;-64
2023/05/27 06:27:56;;;;;;;1.70;1.60;;;25.70;61.70;;;;;;5037065;28;20649;-64
2023/05/27 06:30:24;;;;;;;1.87;1.77;;;25.70;61.80;;;;;;5069840;28;20519;-65
2023/05/27 06:32:55;;;;;;;1.60;1.50;;;25.70;61.80;;;;;;5055685;28;20555;-64
2023/05/27 06:35:25;;;;;;;2.07;1.97;;;25.70;61.70;;;;;;5054976;28;20559;-64
2023/05/27 06:37:54;;;;;;;1.37;1.27;;;25.70;61.60;;;;;;5073740;28;20524;-65
2023/05/27 06:40:22;;;;;;;1.53;1.43;;;25.70;61.60;;;;;;5055624;28;20468;-65
2023/05/27 06:42:51;;;;;;;1.90;1.80;;;25.70;61.60;;;;;;5056654;28;20498;-64
2023/05/27 06:45:27;;;;;;;1.70;1.60;;;25.70;61.60;;;;;;5055072;28;20972;-63
2023/05/27 06:48:09;;;;;;;1.83;1.73;;;25.70;61.60;;;;;;5046024;28;20466;-63
2023/05/27 06:50:37;;;;;;;2.00;1.90;;;25.70;61.60;;;;;;5054114;28;20499;-64
2023/05/27 06:53:06;;;;;;;1.97;1.87;;;25.70;61.60;;;;;;5070604;28;20451;-64
2023/05/27 06:55:54;;;;;;;1.40;1.40;;;25.70;61.60;;;;;;5069195;28;21010;-64
2023/05/27 06:58:44;;;;;;;1.83;1.73;;;25.70;61.60;;;;;;5054022;28;20495;-64
2023/05/27 07:01:15;;;;;;;1.73;1.63;;;25.70;61.60;;;;;;5053243;28;20492;-66
2023/05/27 07:03:54;;;;;;;1.50;1.40;;;25.70;61.60;;;;;;5052684;28;20531;-67
2023/05/27 07:06:32;;;;;;;1.57;1.47;;;25.70;61.50;;;;;;5053264;28;20925;-67
2023/05/27 07:09:00;;;;;;;1.47;1.37;;;25.70;61.50;;;;;;5050659;28;20946;-67
2023/05/27 07:11:33;;;;;;;1.83;1.73;;;25.70;61.50;;;;;;5065177;28;20468;-67
2023/05/27 07:14:06;;;;;;;1.93;1.83;;;25.70;61.50;;;;;;5052558;28;20483;-67
2023/05/27 07:16:35;;;;;;;1.77;1.67;;;25.70;61.50;;;;;;5069412;28;20511;-67
2023/05/27 07:19:05;;;;;;;1.60;1.50;;;25.70;61.50;;;;;;5071995;28;20462;-67
2023/05/27 07:21:40;;;;;;;1.90;1.70;;;25.80;61.50;;;;;;5053972;28;20502;-68
2023/05/27 07:24:15;;;;;;;2.00;1.80;;;25.80;61.50;;;;;;5040314;28;20487;-67
2023/05/27 07:26:43;;;;;;;1.60;1.50;;;25.80;61.50;;;;;;5054497;28;20545;-67
2023/05/27 07:29:12;;;;;;;1.90;1.80;;;25.80;61.50;;;;;;5053411;28;20484;-66
2023/05/27 07:32:00;;;;;;;1.80;1.70;;;25.80;61.50;;;;;;5069759;28;20545;-66
2023/05/27 07:34:33;;;;;;;1.80;1.70;;;25.80;61.50;;;;;;5053621;28;20464;-66
2023/05/27 07:37:01;;;;;;;1.77;1.67;;;25.80;61.50;;;;;;5053455;28;20944;-66
2023/05/27 07:39:29;;;;;;;1.50;1.40;;;25.80;61.50;;;;;;5053664;28;20458;-67
2023/05/27 07:41:58;;;;;;;1.50;1.40;;;25.80;61.40;;;;;;5070994;28;20472;-66
2023/05/27 07:44:28;;;;;;;1.73;1.63;;;25.80;61.40;;;;;;5053078;28;20472;-66
2023/05/27 07:46:57;;;;;;;1.70;1.60;;;25.80;61.40;;;;;;5053584;28;20505;-66
2023/05/27 07:49:25;;;;;;;1.73;1.63;;;25.80;61.40;;;;;;5055123;28;20819;-66
2023/05/27 07:52:18;;;;;;;2.17;2.07;;;25.80;61.40;;;;;;5055288;28;20456;-64
2023/05/27 07:54:47;;;;;;;1.83;1.73;;;25.80;61.40;;;;;;5053062;28;20539;-64
2023/05/27 07:57:24;;;;;;;1.80;1.70;;;25.80;61.40;;;;;;5053231;28;20941;-64
2023/05/27 07:59:53;;;;;;;2.03;1.83;;;25.80;61.40;;;;;;5050958;28;20490;-64
2023/05/27 08:02:25;;;;;;;1.37;1.27;;;25.80;61.40;;;;;;5042466;28;20855;-64
2023/05/27 08:04:53;;;;;;;1.90;1.80;;;25.80;61.30;;;;;;5067496;28;20470;-65
2023/05/27 08:07:39;;;;;;;1.70;1.60;;;25.80;61.30;;;;;;5053321;28;20449;-64
2023/05/27 08:10:44;;;;;;;1.90;1.80;;;25.90;61.30;;;;;;4970306;28;20456;-63
2023/05/27 08:13:26;;;;;;;1.73;1.63;;;25.90;61.30;;;;;;5061923;28;20936;-64
2023/05/27 08:16:02;;;;;;;1.57;1.47;;;25.90;61.30;;;;;;5052046;28;20879;-64
2023/05/27 08:18:44;;;;;;;1.80;1.70;;;25.90;61.30;;;;;;5053032;28;20526;-64
2023/05/27 08:21:19;;;;;;;1.60;1.50;;;25.90;61.30;;;;;;5071516;28;20455;-64
2023/05/27 08:24:12;;;;;;;1.90;1.80;;;25.90;61.30;;;;;;5053082;28;20468;-64
2023/05/27 08:27:18;;;;;;;1.60;1.50;;;25.90;61.30;;;;;;4977463;28;1110526;-64
2023/05/27 08:30:01;;;;;;;1.37;1.30;;;25.90;61.30;;;;;;5068818;28;20206;-64
2023/05/27 08:32:53;;;;;;;1.13;1.10;;;25.90;61.30;;;;;;5055375;28;20459;-63
2023/05/27 08:35:21;;;;;;;1.80;1.70;;;25.90;61.20;;;;;;5070804;28;20559;-64
2023/05/27 08:37:51;;;;;;;2.03;1.93;;;25.90;61.20;;;;;;5056590;28;20464;-63
2023/05/27 08:40:21;;;;;;;1.80;1.70;;;25.90;61.20;;;;;;5046495;28;20971;-64
2023/05/27 08:42:52;;;;;;;1.50;1.40;;;25.90;61.20;;;;;;5048076;28;20560;-64
2023/05/27 08:45:22;;;;;;;1.47;1.37;;;25.90;61.20;;;;;;5051475;28;20500;-64
2023/05/27 08:47:52;;;;;;;1.47;1.40;;;25.90;61.20;;;;;;5052673;28;20459;-63
2023/05/27 08:50:25;;;;;;;1.30;1.20;;;25.90;61.20;;;;;;5046285;28;20568;-64
2023/05/27 08:52:55;;;;;;;2.00;1.90;;;25.90;61.20;;;;;;5052184;28;21070;-65
2023/05/27 08:55:28;;;;;;;1.87;1.77;;;25.90;61.20;;;;;;5049477;28;20833;-64
2023/05/27 08:57:57;;;;;;;1.63;1.53;;;25.90;61.20;;;;;;5051545;28;20465;-64
2023/05/27 09:00:28;;;;;;;1.43;1.33;;;25.90;61.10;;;;;;5052063;28;20461;-64
2023/05/27 09:03:03;;;;;;;1.43;1.33;;;26.00;61.10;;;;;;5053119;28;20475;-64
2023/05/27 09:05:37;;;;;;;1.53;1.43;;;26.00;61.10;;;;;;5051884;28;20670;-64
2023/05/27 09:08:05;;;;;;;1.60;1.50;;;26.00;61.00;;;;;;5070778;28;20476;-64
2023/05/27 09:10:38;;;;;;;1.50;1.40;;;26.00;61.10;;;;;;5052698;28;20454;-64
2023/05/27 09:13:07;;;;;;;1.53;1.43;;;26.00;61.10;;;;;;5070702;28;20957;-63
2023/05/27 09:15:35;;;;;;;1.43;1.33;;;26.00;61.10;;;;;;5069166;28;20429;-64
2023/05/27 09:18:06;;;;;;;1.70;1.60;;;26.00;61.10;;;;;;5071181;28;20568;-64
2023/05/27 09:20:34;;;;;;;1.43;1.33;;;26.00;61.10;;;;;;5071065;28;20952;-65
2023/05/27 09:23:04;;;;;;;1.53;1.43;;;26.00;61.00;;;;;;5061512;28;20553;-64
2023/05/27 09:25:32;;;;;;;1.80;1.70;;;26.00;61.00;;;;;;5052705;28;20855;-64
2023/05/27 09:28:05;;;;;;;1.00;1.00;;;26.00;61.10;;;;;;5069589;28;20898;-64
2023/05/27 09:30:34;;;;;;;1.53;1.43;;;26.00;61.00;;;;;;5070032;28;20456;-64
2023/05/27 09:33:04;;;;;;;1.10;1.10;;;26.00;61.00;;;;;;5053239;28;20855;-63
2023/05/27 09:35:39;;;;;;;1.67;1.57;;;26.00;61.00;;;;;;5070517;28;20456;-64
2023/05/27 09:38:07;;;;;;;1.33;1.30;;;26.00;61.00;;;;;;5069501;28;20436;-63
2023/05/27 09:40:37;;;;;;;1.30;1.20;;;26.00;61.00;;;;;;5067242;28;20460;-64
2023/05/27 09:43:07;;;;;;;1.50;1.40;;;26.00;61.00;;;;;;5070465;28;20936;-63
2023/05/27 09:45:36;;;;;;;1.70;1.60;;;26.00;61.00;;;;;;5069543;28;20508;-64
2023/05/27 09:48:05;;;;;;;1.70;1.60;;;26.00;61.00;;;;;;5071441;28;20878;-64
2023/05/27 09:50:35;;;;;;;1.60;1.50;;;26.00;61.00;;;;;;5070954;28;20463;-63
2023/05/27 09:53:05;;;;;;;1.70;1.60;;;26.00;61.00;;;;;;5069118;28;20449;-64
2023/05/27 09:55:39;;;;;;;1.70;1.60;;;26.00;61.00;;;;;;5070739;28;20455;-63
2023/05/27 09:58:09;;;;;;;1.30;1.30;;;26.00;61.00;;;;;;5070420;28;20453;-66
2023/05/27 10:00:39;;;;;;;1.70;1.60;;;26.00;61.00;;;;;;5068976;28;20457;-63
2023/05/27 10:03:10;;;;;;;1.20;1.20;;;26.00;61.00;;;;;;5052918;28;20817;-64
2023/05/27 10:05:40;;;;;;;1.67;1.57;;;26.00;61.00;;;;;;5070398;28;20473;-64
2023/05/27 10:08:08;;;;;;;1.17;1.17;;;26.00;61.00;;;;;;5070726;28;20437;-63
2023/05/27 10:10:52;;;;;;;1.10;1.10;;;26.10;60.90;;;;;;5070715;28;20541;-64
2023/05/27 10:13:24;;;;;;;1.43;1.33;;;26.10;60.90;;;;;;5071238;28;20452;-65
2023/05/27 10:15:53;;;;;;;1.40;1.40;;;26.10;60.90;;;;;;5069907;28;20451;-63
2023/05/27 10:18:26;;;;;;;1.67;1.57;;;26.10;60.90;;;;;;5070799;28;20466;-64
2023/05/27 10:20:57;;;;;;;1.60;1.50;;;26.10;60.90;;;;;;5070327;28;20431;-63
2023/05/27 10:23:27;;;;;;;1.20;1.20;;;26.10;60.90;;;;;;5052547;28;20457;-65
2023/05/27 10:25:57;;;;;;;1.40;1.30;;;26.10;60.90;;;;;;5064386;28;20504;-63
2023/05/27 10:28:32;;;;;;;1.43;1.33;;;26.10;60.90;;;;;;5071302;28;20481;-64
2023/05/27 10:31:08;;;;;;;1.23;1.23;;;26.10;60.90;;;;;;5072507;28;21011;-64
2023/05/27 10:33:38;;;;;;;1.60;1.50;;;26.10;60.90;;;;;;5074117;28;20421;-63
2023/05/27 10:36:09;;;;;;;1.80;1.70;;;26.10;60.90;;;;;;5070051;28;20468;-64
2023/05/27 10:38:37;;;;;;;1.27;1.17;;;26.10;60.80;;;;;;5073315;28;20904;-64
2023/05/27 10:41:07;;;;;;;1.13;1.13;;;26.10;60.80;;;;;;5074114;28;20483;-64
2023/05/27 10:43:37;;;;;;;1.47;1.40;;;26.10;60.80;;;;;;5073488;28;20492;-64
2023/05/27 10:46:08;;;;;;;1.40;1.30;;;26.10;60.80;;;;;;5073243;28;20481;-64
2023/05/27 10:48:39;;;;;;;1.27;1.27;;;26.10;60.80;;;;;;5055498;28;20459;-64
2023/05/27 10:51:09;;;;;;;1.27;1.17;;;26.10;60.80;;;;;;5059784;28;20454;-63
2023/05/27 10:53:37;;;;;;;1.50;1.40;;;26.10;60.80;;;;;;5072839;28;20496;-63
2023/05/27 10:56:08;;;;;;;1.73;1.63;;;26.20;60.70;;;;;;5073182;28;20482;-63
2023/05/27 10:58:39;;;;;;;1.50;1.40;;;26.20;60.80;;;;;;5055157;28;20469;-64
2023/05/27 11:01:11;;;;;;;1.40;1.30;;;26.10;60.70;;;;;;5072350;28;20453;-64
2023/05/27 11:03:45;;;;;;;2.07;1.97;;;26.20;60.70;;;;;;5072555;28;21233;-64
2023/05/27 11:06:16;;;;;;;1.13;1.10;;;26.20;60.70;;;;;;5057810;28;20931;-63
2023/05/27 11:08:45;;;;;;;1.30;1.30;;;26.10;60.80;;;;;;5073125;28;20457;-64
2023/05/27 11:11:14;;;;;;;1.10;1.10;;;26.10;60.80;;;;;;5073036;28;20480;-64
2023/05/27 11:13:46;;;;;;;1.60;1.50;;;26.10;60.80;;;;;;5073019;28;20455;-64
2023/05/27 11:16:16;;;;;;;1.30;1.20;;;26.10;60.80;;;;;;5074258;28;20542;-63
2023/05/27 11:18:47;;;;;;;1.30;1.20;;;26.10;60.90;;;;;;5072469;28;20458;-65
2023/05/27 11:21:17;;;;;;;1.40;1.30;;;26.10;60.90;;;;;;5055008;28;20956;-64
2023/05/27 11:23:47;;;;;;;1.27;1.27;;;26.10;60.90;;;;;;5072727;28;20427;-65
2023/05/27 11:26:16;;;;;;;1.33;1.30;;;26.10;60.90;;;;;;5054680;28;20499;-64
2023/05/27 11:28:50;;;;;;;1.13;1.13;;;26.10;60.90;;;;;;5054463;28;20495;-65
2023/05/27 11:31:20;;;;;;;1.20;1.13;;;26.00;61.00;;;;;;5073574;28;20462;-64
2023/05/27 11:33:51;;;;;;;1.20;1.20;;;26.00;61.00;;;;;;5072377;28;20455;-65
2023/05/27 11:36:21;;;;;;;1.40;1.30;;;26.00;61.10;;;;;;5072972;28;20447;-64
2023/05/27 11:38:51;;;;;;;1.50;1.40;;;26.00;61.10;;;;;;5070587;28;20556;-65
2023/05/27 11:41:20;;;;;;;1.20;1.20;;;26.00;61.20;;;;;;5072625;28;20445;-63
2023/05/27 11:43:51;;;;;;;1.23;1.23;;;26.00;61.20;;;;;;5071772;28;20497;-63
2023/05/27 11:46:20;;;;;;;1.50;1.40;;;26.00;61.20;;;;;;5071143;28;20874;-64
2023/05/27 11:48:48;;;;;;;1.67;1.57;;;26.00;61.10;;;;;;5072082;28;20449;-64
2023/05/27 11:51:17;;;;;;;1.53;1.43;;;26.10;61.10;;;;;;5071969;28;20925;-64
2023/05/27 11:53:46;;;;;;;1.03;1.03;;;26.10;61.00;;;;;;5071994;28;20467;-64
2023/05/27 11:56:15;;;;;;;1.70;1.60;;;26.10;61.00;;;;;;5066311;28;20944;-64
2023/05/27 11:58:43;;;;;;;1.00;1.00;;;26.10;60.90;;;;;;5053835;28;20991;-64
2023/05/27 12:01:13;;;;;;;1.60;1.50;;;26.20;60.80;;;;;;5071405;28;20435;-64
2023/05/27 12:03:42;;;;;;;1.40;1.30;;;26.40;60.60;;;;;;5072361;28;20541;-64
2023/05/27 12:06:10;;;;;;;1.30;1.20;;;26.50;60.20;;;;;;5071998;28;20443;-64
2023/05/27 12:08:39;;;;;;;1.20;1.10;;;26.60;60.00;;;;;;5071177;28;20465;-64
2023/05/27 12:11:07;;;;;;;1.23;1.20;;;26.80;59.90;;;;;;5071381;28;20452;-64
2023/05/27 12:13:36;;;;;;;1.30;1.30;;;26.90;59.70;;;;;;5071649;28;20452;-64
2023/05/27 12:16:04;;;;;;;1.70;1.60;;;27.10;59.20;;;;;;5071081;28;20511;-64
2023/05/27 12:18:34;;;;;;;1.30;1.30;;;27.30;58.90;;;;;;5053358;28;20554;-64
2023/05/27 12:21:02;;;;;;;1.10;1.10;;;27.40;58.50;;;;;;5072153;28;20479;-64
2023/05/27 12:23:30;;;;;;;1.20;1.20;;;27.60;58.20;;;;;;5072259;28;20911;-67
2023/05/27 12:25:59;;;;;;;1.30;1.20;;;27.60;58.10;;;;;;5071426;28;20507;-66
2023/05/27 12:28:27;;;;;;;1.00;1.00;;;27.70;57.90;;;;;;5071698;28;20542;-67
2023/05/27 12:30:56;;;;;;;1.00;1.00;;;27.70;57.90;;;;;;5052713;28;20898;-67
2023/05/27 12:33:24;;;;;;;1.30;1.20;;;27.70;57.80;;;;;;5071353;28;20448;-67
2023/05/27 12:35:54;;;;;;;1.00;1.00;;;27.70;57.90;;;;;;5071171;28;20465;-67
2023/05/27 12:38:22;;;;;;;1.50;1.40;;;27.60;58.00;;;;;;5052773;28;20458;-67
2023/05/27 12:40:51;;;;;;;1.33;1.23;;;27.60;58.10;;;;;;5071113;28;20461;-66
2023/05/27 12:43:20;;;;;;;1.37;1.27;;;27.60;58.10;;;;;;5072696;28;20822;-66
2023/05/27 12:45:48;;;;;;;1.13;1.10;;;27.60;58.10;;;;;;5070331;28;20462;-66
2023/05/27 12:48:18;;;;;;;1.13;1.13;;;27.60;58.10;;;;;;5071847;28;21099;-67
2023/05/27 12:50:46;;;;;;;1.37;1.27;;;27.60;58.10;;;;;;5071311;28;20430;-66
2023/05/27 12:53:16;;;;;;;1.60;1.50;;;27.60;58.20;;;;;;5070602;28;20553;-66
2023/05/27 12:55:45;;;;;;;1.07;1.07;;;27.60;58.20;;;;;;5070882;28;20460;-66
2023/05/27 12:58:13;;;;;;;1.13;1.13;;;27.50;58.20;;;;;;5051151;28;20832;-66
2023/05/27 13:00:42;;;;;;;1.07;1.07;;;27.50;58.20;;;;;;5052194;28;20472;-68
2023/05/27 13:03:11;;;;;;;1.07;1.07;;;27.50;58.30;;;;;;5069585;28;20453;-66
2023/05/27 13:05:40;;;;;;;1.10;1.10;;;27.50;58.30;;;;;;5069524;28;20457;-67
2023/05/27 13:08:08;;;;;;;1.03;1.00;;;27.50;58.40;;;;;;5063391;28;20466;-66